sensor_id;sensor_type;location;lat;lon;timestamp;P1;durP1;ratioP1;P2;durP2;ratioP2
69401;SDS011;56589;51.992;5.924;2022-09-24T00:02:01;22.85;;;17.50;;
69401;SDS011;56589;51.992;5.924;2022-09-24T00:04:27;22.98;;;17.70;;
69401;SDS011;56589;51.992;5.924;2022-09-24T00:06:56;23.85;;;17.05;;
69401;SDS011;56589;51.992;5.924;2022-09-24T00:09:21;24.70;;;17.63;;
69401;SDS011;56589;51.992;5.924;2022-09-24T00:11:48;21.75;;;16.15;;
69401;SDS011;56589;51.992;5.924;2022-09-24T00:14:14;23.60;;;17.13;;
69401;SDS011;56589;51.992;5.924;2022-09-24T00:16:41;23.40;;;16.40;;
69401;SDS011;56589;51.992;5.924;2022-09-24T00:19:11;22.90;;;16.70;;
69401;SDS011;56589;51.992;5.924;2022-09-24T00:21:38;25.13;;;17.42;;
69401;SDS011;56589;51.992;5.924;2022-09-24T00:24:08;25.05;;;18.00;;
69401;SDS011;56589;51.992;5.924;2022-09-24T00:26:37;23.37;;;17.60;;
69401;SDS011;56589;51.992;5.924;2022-09-24T00:29:03;26.52;;;18.52;;
69401;SDS011;56589;51.992;5.924;2022-09-24T00:31:30;23.25;;;18.48;;
69401;SDS011;56589;51.992;5.924;2022-09-24T00:33:56;22.38;;;17.70;;
69401;SDS011;56589;51.992;5.924;2022-09-24T00:36:23;23.98;;;17.83;;
69401;SDS011;56589;51.992;5.924;2022-09-24T00:38:49;28.75;;;18.00;;
69401;SDS011;56589;51.992;5.924;2022-09-24T00:41:21;23.83;;;18.23;;
69401;SDS011;56589;51.992;5.924;2022-09-24T00:43:50;26.45;;;18.40;;
69401;SDS011;56589;51.992;5.924;2022-09-24T00:46:17;23.52;;;17.70;;
69401;SDS011;56589;51.992;5.924;2022-09-24T00:48:50;26.55;;;18.35;;
69401;SDS011;56589;51.992;5.924;2022-09-24T00:51:22;22.70;;;17.08;;
69401;SDS011;56589;51.992;5.924;2022-09-24T00:53:53;23.40;;;18.25;;
69401;SDS011;56589;51.992;5.924;2022-09-24T00:56:27;24.67;;;18.17;;
69401;SDS011;56589;51.992;5.924;2022-09-24T00:58:56;25.40;;;18.40;;
69401;SDS011;56589;51.992;5.924;2022-09-24T01:01:26;26.10;;;19.50;;
69401;SDS011;56589;51.992;5.924;2022-09-24T01:03:53;23.13;;;16.88;;
69401;SDS011;56589;51.992;5.924;2022-09-24T01:06:23;22.58;;;17.88;;
69401;SDS011;56589;51.992;5.924;2022-09-24T01:08:50;27.77;;;19.65;;
69401;SDS011;56589;51.992;5.924;2022-09-24T01:11:23;26.13;;;19.33;;
69401;SDS011;56589;51.992;5.924;2022-09-24T01:14:20;28.55;;;19.67;;
69401;SDS011;56589;51.992;5.924;2022-09-24T01:17:17;28.17;;;19.92;;
69401;SDS011;56589;51.992;5.924;2022-09-24T01:20:02;25.75;;;18.75;;
69401;SDS011;56589;51.992;5.924;2022-09-24T01:26:19;28.77;;;20.17;;
69401;SDS011;56589;51.992;5.924;2022-09-24T01:32:16;28.58;;;20.27;;
69401;SDS011;56589;51.992;5.924;2022-09-24T01:34:52;27.35;;;19.67;;
69401;SDS011;56589;51.992;5.924;2022-09-24T01:37:25;28.07;;;20.83;;
69401;SDS011;56589;51.992;5.924;2022-09-24T01:39:56;28.52;;;20.25;;
69401;SDS011;56589;51.992;5.924;2022-09-24T01:42:26;30.67;;;21.63;;
69401;SDS011;56589;51.992;5.924;2022-09-24T01:44:57;27.45;;;20.35;;
69401;SDS011;56589;51.992;5.924;2022-09-24T01:47:28;29.42;;;20.83;;
69401;SDS011;56589;51.992;5.924;2022-09-24T01:49:58;30.48;;;21.38;;
69401;SDS011;56589;51.992;5.924;2022-09-24T01:52:24;31.90;;;22.17;;
69401;SDS011;56589;51.992;5.924;2022-09-24T01:54:58;31.88;;;21.48;;
69401;SDS011;56589;51.992;5.924;2022-09-24T01:57:30;28.30;;;21.27;;
69401;SDS011;56589;51.992;5.924;2022-09-24T02:00:07;31.83;;;21.42;;
69401;SDS011;56589;51.992;5.924;2022-09-24T02:02:38;28.02;;;20.45;;
69401;SDS011;56589;51.992;5.924;2022-09-24T02:05:14;29.95;;;20.75;;
69401;SDS011;56589;51.992;5.924;2022-09-24T02:07:49;31.77;;;20.88;;
69401;SDS011;56589;51.992;5.924;2022-09-24T02:10:26;27.52;;;20.05;;
69401;SDS011;56589;51.992;5.924;2022-09-24T02:13:04;31.20;;;20.50;;
69401;SDS011;56589;51.992;5.924;2022-09-24T02:15:38;27.58;;;20.58;;
69401;SDS011;56589;51.992;5.924;2022-09-24T02:18:10;29.85;;;21.13;;
69401;SDS011;56589;51.992;5.924;2022-09-24T02:20:42;29.08;;;21.30;;
69401;SDS011;56589;51.992;5.924;2022-09-24T02:23:09;28.45;;;19.50;;
69401;SDS011;56589;51.992;5.924;2022-09-24T02:25:39;32.08;;;21.10;;
69401;SDS011;56589;51.992;5.924;2022-09-24T02:28:12;24.67;;;18.83;;
69401;SDS011;56589;51.992;5.924;2022-09-24T02:30:42;26.83;;;19.45;;
69401;SDS011;56589;51.992;5.924;2022-09-24T02:33:15;26.27;;;19.50;;
69401;SDS011;56589;51.992;5.924;2022-09-24T02:38:14;24.73;;;17.58;;
69401;SDS011;56589;51.992;5.924;2022-09-24T02:40:40;24.15;;;18.55;;
69401;SDS011;56589;51.992;5.924;2022-09-24T02:43:06;23.75;;;17.95;;
69401;SDS011;56589;51.992;5.924;2022-09-24T02:45:32;26.08;;;17.30;;
69401;SDS011;56589;51.992;5.924;2022-09-24T02:48:00;23.73;;;17.77;;
69401;SDS011;56589;51.992;5.924;2022-09-24T02:50:26;25.20;;;17.63;;
69401;SDS011;56589;51.992;5.924;2022-09-24T02:52:52;23.20;;;17.17;;
69401;SDS011;56589;51.992;5.924;2022-09-24T02:55:18;26.58;;;17.52;;
69401;SDS011;56589;51.992;5.924;2022-09-24T02:57:44;26.45;;;17.88;;
69401;SDS011;56589;51.992;5.924;2022-09-24T03:00:10;24.23;;;17.35;;
69401;SDS011;56589;51.992;5.924;2022-09-24T03:02:38;24.35;;;17.10;;
69401;SDS011;56589;51.992;5.924;2022-09-24T03:05:07;23.25;;;16.70;;
69401;SDS011;56589;51.992;5.924;2022-09-24T03:07:33;21.38;;;15.95;;
69401;SDS011;56589;51.992;5.924;2022-09-24T03:09:59;21.65;;;15.43;;
69401;SDS011;56589;51.992;5.924;2022-09-24T03:12:25;21.08;;;14.50;;
69401;SDS011;56589;51.992;5.924;2022-09-24T03:14:51;21.63;;;15.40;;
69401;SDS011;56589;51.992;5.924;2022-09-24T03:17:17;19.92;;;14.25;;
69401;SDS011;56589;51.992;5.924;2022-09-24T03:19:42;20.55;;;14.57;;
69401;SDS011;56589;51.992;5.924;2022-09-24T03:22:11;19.80;;;14.38;;
69401;SDS011;56589;51.992;5.924;2022-09-24T03:24:37;20.92;;;14.52;;
69401;SDS011;56589;51.992;5.924;2022-09-24T03:27:02;18.70;;;13.63;;
69401;SDS011;56589;51.992;5.924;2022-09-24T03:29:28;20.80;;;14.20;;
69401;SDS011;56589;51.992;5.924;2022-09-24T03:31:54;19.73;;;13.85;;
69401;SDS011;56589;51.992;5.924;2022-09-24T03:34:20;16.58;;;12.75;;
69401;SDS011;56589;51.992;5.924;2022-09-24T03:36:46;18.67;;;13.13;;
69401;SDS011;56589;51.992;5.924;2022-09-24T03:39:14;18.20;;;12.15;;
69401;SDS011;56589;51.992;5.924;2022-09-24T03:41:40;17.58;;;12.50;;
69401;SDS011;56589;51.992;5.924;2022-09-24T03:44:06;16.13;;;12.05;;
69401;SDS011;56589;51.992;5.924;2022-09-24T03:46:32;19.27;;;12.93;;
69401;SDS011;56589;51.992;5.924;2022-09-24T03:48:57;18.05;;;13.13;;
69401;SDS011;56589;51.992;5.924;2022-09-24T03:51:23;18.17;;;13.02;;
69401;SDS011;56589;51.992;5.924;2022-09-24T03:53:49;14.70;;;11.63;;
69401;SDS011;56589;51.992;5.924;2022-09-24T03:56:17;17.00;;;12.38;;
69401;SDS011;56589;51.992;5.924;2022-09-24T03:58:43;18.40;;;11.43;;
69401;SDS011;56589;51.992;5.924;2022-09-24T04:01:09;15.80;;;11.73;;
69401;SDS011;56589;51.992;5.924;2022-09-24T04:03:35;17.77;;;12.27;;
69401;SDS011;56589;51.992;5.924;2022-09-24T04:06:01;17.25;;;13.05;;
69401;SDS011;56589;51.992;5.924;2022-09-24T04:08:27;16.65;;;11.68;;
69401;SDS011;56589;51.992;5.924;2022-09-24T04:10:53;17.98;;;12.88;;
69401;SDS011;56589;51.992;5.924;2022-09-24T04:13:22;18.33;;;12.43;;
69401;SDS011;56589;51.992;5.924;2022-09-24T04:15:48;17.50;;;12.38;;
69401;SDS011;56589;51.992;5.924;2022-09-24T04:18:14;20.65;;;12.68;;
69401;SDS011;56589;51.992;5.924;2022-09-24T04:20:40;15.52;;;12.05;;
69401;SDS011;56589;51.992;5.924;2022-09-24T04:23:06;22.33;;;12.88;;
69401;SDS011;56589;51.992;5.924;2022-09-24T04:25:33;18.50;;;12.80;;
69401;SDS011;56589;51.992;5.924;2022-09-24T04:28:00;22.08;;;12.77;;
69401;SDS011;56589;51.992;5.924;2022-09-24T04:30:31;16.25;;;11.75;;
69401;SDS011;56589;51.992;5.924;2022-09-24T04:32:59;18.63;;;12.13;;
69401;SDS011;56589;51.992;5.924;2022-09-24T04:35:26;17.63;;;12.15;;
69401;SDS011;56589;51.992;5.924;2022-09-24T04:37:55;17.08;;;12.60;;
69401;SDS011;56589;51.992;5.924;2022-09-24T04:40:22;19.10;;;12.65;;
69401;SDS011;56589;51.992;5.924;2022-09-24T04:42:48;18.42;;;13.13;;
69401;SDS011;56589;51.992;5.924;2022-09-24T04:45:14;20.27;;;12.27;;
69401;SDS011;56589;51.992;5.924;2022-09-24T04:47:43;16.85;;;12.45;;
69401;SDS011;56589;51.992;5.924;2022-09-24T04:50:10;16.90;;;12.05;;
69401;SDS011;56589;51.992;5.924;2022-09-24T04:52:36;19.38;;;13.38;;
69401;SDS011;56589;51.992;5.924;2022-09-24T04:55:03;17.25;;;12.32;;
69401;SDS011;56589;51.992;5.924;2022-09-24T04:57:30;18.10;;;12.63;;
69401;SDS011;56589;51.992;5.924;2022-09-24T04:59:56;17.35;;;12.93;;
69401;SDS011;56589;51.992;5.924;2022-09-24T05:02:22;19.90;;;13.05;;
69401;SDS011;56589;51.992;5.924;2022-09-24T05:04:50;19.00;;;13.63;;
69401;SDS011;56589;51.992;5.924;2022-09-24T05:07:16;18.63;;;13.45;;
69401;SDS011;56589;51.992;5.924;2022-09-24T05:09:42;20.60;;;12.82;;
69401;SDS011;56589;51.992;5.924;2022-09-24T05:12:08;20.42;;;13.05;;
69401;SDS011;56589;51.992;5.924;2022-09-24T05:14:33;18.00;;;12.60;;
69401;SDS011;56589;51.992;5.924;2022-09-24T05:16:59;16.13;;;12.55;;
69401;SDS011;56589;51.992;5.924;2022-09-24T05:19:25;18.73;;;12.50;;
69401;SDS011;56589;51.992;5.924;2022-09-24T05:21:54;20.92;;;13.70;;
69401;SDS011;56589;51.992;5.924;2022-09-24T05:24:20;19.20;;;13.82;;
69401;SDS011;56589;51.992;5.924;2022-09-24T05:26:45;17.50;;;13.15;;
69401;SDS011;56589;51.992;5.924;2022-09-24T05:29:11;19.35;;;13.48;;
69401;SDS011;56589;51.992;5.924;2022-09-24T05:31:37;19.65;;;13.27;;
69401;SDS011;56589;51.992;5.924;2022-09-24T05:34:03;16.50;;;12.85;;
69401;SDS011;56589;51.992;5.924;2022-09-24T05:36:29;19.02;;;13.48;;
69401;SDS011;56589;51.992;5.924;2022-09-24T05:38:58;19.40;;;14.43;;
69401;SDS011;56589;51.992;5.924;2022-09-24T05:41:24;17.42;;;13.02;;
69401;SDS011;56589;51.992;5.924;2022-09-24T05:43:49;19.17;;;14.30;;
69401;SDS011;56589;51.992;5.924;2022-09-24T05:46:15;17.27;;;13.55;;
69401;SDS011;56589;51.992;5.924;2022-09-24T05:48:41;22.40;;;14.15;;
69401;SDS011;56589;51.992;5.924;2022-09-24T05:51:07;19.15;;;13.30;;
69401;SDS011;56589;51.992;5.924;2022-09-24T05:53:33;19.27;;;13.77;;
69401;SDS011;56589;51.992;5.924;2022-09-24T05:56:02;19.42;;;14.10;;
69401;SDS011;56589;51.992;5.924;2022-09-24T05:58:28;18.88;;;13.55;;
69401;SDS011;56589;51.992;5.924;2022-09-24T06:00:54;19.95;;;13.27;;
69401;SDS011;56589;51.992;5.924;2022-09-24T06:03:22;21.23;;;13.02;;
69401;SDS011;56589;51.992;5.924;2022-09-24T06:05:50;17.65;;;13.10;;
69401;SDS011;56589;51.992;5.924;2022-09-24T06:08:16;21.33;;;13.27;;
69401;SDS011;56589;51.992;5.924;2022-09-24T06:10:44;16.77;;;12.38;;
69401;SDS011;56589;51.992;5.924;2022-09-24T06:13:15;20.00;;;13.07;;
69401;SDS011;56589;51.992;5.924;2022-09-24T06:15:43;15.52;;;12.35;;
69401;SDS011;56589;51.992;5.924;2022-09-24T06:18:10;17.48;;;12.77;;
69401;SDS011;56589;51.992;5.924;2022-09-24T06:20:36;16.85;;;12.02;;
69401;SDS011;56589;51.992;5.924;2022-09-24T06:23:02;18.63;;;12.93;;
69401;SDS011;56589;51.992;5.924;2022-09-24T06:25:29;20.27;;;12.63;;
69401;SDS011;56589;51.992;5.924;2022-09-24T06:27:55;20.42;;;12.77;;
69401;SDS011;56589;51.992;5.924;2022-09-24T06:30:26;16.85;;;13.07;;
69401;SDS011;56589;51.992;5.924;2022-09-24T06:32:53;17.27;;;12.55;;
69401;SDS011;56589;51.992;5.924;2022-09-24T06:35:19;18.88;;;13.30;;
69401;SDS011;56589;51.992;5.924;2022-09-24T06:37:45;18.40;;;13.38;;
69401;SDS011;56589;51.992;5.924;2022-09-24T06:40:11;19.30;;;13.75;;
69401;SDS011;56589;51.992;5.924;2022-09-24T06:42:37;20.52;;;13.32;;
69401;SDS011;56589;51.992;5.924;2022-09-24T06:45:04;17.02;;;13.27;;
69401;SDS011;56589;51.992;5.924;2022-09-24T06:47:34;20.80;;;13.45;;
69401;SDS011;56589;51.992;5.924;2022-09-24T06:50:00;19.20;;;13.45;;
69401;SDS011;56589;51.992;5.924;2022-09-24T06:52:28;20.17;;;13.75;;
69401;SDS011;56589;51.992;5.924;2022-09-24T06:54:54;18.52;;;14.00;;
69401;SDS011;56589;51.992;5.924;2022-09-24T06:57:20;20.95;;;14.52;;
69401;SDS011;56589;51.992;5.924;2022-09-24T06:59:46;21.05;;;15.07;;
69401;SDS011;56589;51.992;5.924;2022-09-24T07:02:12;19.88;;;13.80;;
69401;SDS011;56589;51.992;5.924;2022-09-24T07:04:41;23.27;;;14.90;;
69401;SDS011;56589;51.992;5.924;2022-09-24T07:07:07;20.77;;;14.75;;
69401;SDS011;56589;51.992;5.924;2022-09-24T07:09:33;21.20;;;14.30;;
69401;SDS011;56589;51.992;5.924;2022-09-24T07:11:59;20.33;;;14.13;;
69401;SDS011;56589;51.992;5.924;2022-09-24T07:14:25;21.83;;;15.45;;
69401;SDS011;56589;51.992;5.924;2022-09-24T07:16:51;21.08;;;15.13;;
69401;SDS011;56589;51.992;5.924;2022-09-24T07:19:17;19.95;;;13.85;;
69401;SDS011;56589;51.992;5.924;2022-09-24T07:21:46;23.98;;;14.70;;
69401;SDS011;56589;51.992;5.924;2022-09-24T07:24:12;18.48;;;14.30;;
69401;SDS011;56589;51.992;5.924;2022-09-24T07:26:38;20.77;;;14.48;;
69401;SDS011;56589;51.992;5.924;2022-09-24T07:29:04;20.27;;;15.00;;
69401;SDS011;56589;51.992;5.924;2022-09-24T07:31:30;20.13;;;14.95;;
69401;SDS011;56589;51.992;5.924;2022-09-24T07:33:56;23.17;;;14.80;;
69401;SDS011;56589;51.992;5.924;2022-09-24T07:36:22;21.10;;;15.00;;
69401;SDS011;56589;51.992;5.924;2022-09-24T07:38:50;19.23;;;14.65;;
69401;SDS011;56589;51.992;5.924;2022-09-24T07:41:16;18.60;;;14.40;;
69401;SDS011;56589;51.992;5.924;2022-09-24T07:43:42;21.95;;;14.52;;
69401;SDS011;56589;51.992;5.924;2022-09-24T07:46:08;19.58;;;14.40;;
69401;SDS011;56589;51.992;5.924;2022-09-24T07:48:36;20.38;;;13.77;;
69401;SDS011;56589;51.992;5.924;2022-09-24T07:51:06;17.40;;;14.02;;
69401;SDS011;56589;51.992;5.924;2022-09-24T07:53:34;21.05;;;15.57;;
69401;SDS011;56589;51.992;5.924;2022-09-24T07:56:03;17.50;;;13.73;;
69401;SDS011;56589;51.992;5.924;2022-09-24T07:58:29;17.92;;;13.75;;
69401;SDS011;56589;51.992;5.924;2022-09-24T08:00:56;20.30;;;14.55;;
69401;SDS011;56589;51.992;5.924;2022-09-24T08:03:22;20.08;;;13.20;;
69401;SDS011;56589;51.992;5.924;2022-09-24T08:05:48;19.02;;;14.27;;
69401;SDS011;56589;51.992;5.924;2022-09-24T08:08:14;20.65;;;14.45;;
69401;SDS011;56589;51.992;5.924;2022-09-24T08:10:40;17.63;;;14.15;;
69401;SDS011;56589;51.992;5.924;2022-09-24T08:13:09;17.80;;;13.43;;
69401;SDS011;56589;51.992;5.924;2022-09-24T08:15:35;21.60;;;13.75;;
69401;SDS011;56589;51.992;5.924;2022-09-24T08:18:01;18.30;;;13.57;;
69401;SDS011;56589;51.992;5.924;2022-09-24T08:20:29;19.15;;;13.68;;
69401;SDS011;56589;51.992;5.924;2022-09-24T08:22:59;17.27;;;13.05;;
69401;SDS011;56589;51.992;5.924;2022-09-24T08:25:25;21.58;;;13.52;;
69401;SDS011;56589;51.992;5.924;2022-09-24T08:27:51;18.50;;;13.43;;
69401;SDS011;56589;51.992;5.924;2022-09-24T08:30:20;19.73;;;13.73;;
69401;SDS011;56589;51.992;5.924;2022-09-24T08:32:46;22.80;;;14.50;;
69401;SDS011;56589;51.992;5.924;2022-09-24T08:35:14;20.35;;;14.57;;
69401;SDS011;56589;51.992;5.924;2022-09-24T08:37:41;20.98;;;13.18;;
69401;SDS011;56589;51.992;5.924;2022-09-24T08:40:08;17.98;;;14.23;;
69401;SDS011;56589;51.992;5.924;2022-09-24T08:42:44;18.33;;;13.65;;
69401;SDS011;56589;51.992;5.924;2022-09-24T08:45:22;20.02;;;14.48;;
69401;SDS011;56589;51.992;5.924;2022-09-24T08:47:50;19.88;;;13.20;;
69401;SDS011;56589;51.992;5.924;2022-09-24T08:50:23;18.80;;;13.20;;
69401;SDS011;56589;51.992;5.924;2022-09-24T08:52:58;17.30;;;12.85;;
69401;SDS011;56589;51.992;5.924;2022-09-24T08:55:37;18.17;;;13.90;;
69401;SDS011;56589;51.992;5.924;2022-09-24T09:01:06;18.63;;;13.73;;
69401;SDS011;56589;51.992;5.924;2022-09-24T09:03:47;15.27;;;12.90;;
69401;SDS011;56589;51.992;5.924;2022-09-24T09:06:32;17.30;;;13.43;;
69401;SDS011;56589;51.992;5.924;2022-09-24T09:09:17;18.55;;;13.52;;
69401;SDS011;56589;51.992;5.924;2022-09-24T09:11:49;17.15;;;13.35;;
69401;SDS011;56589;51.992;5.924;2022-09-24T09:14:23;16.85;;;13.32;;
69401;SDS011;56589;51.992;5.924;2022-09-24T09:17:08;16.73;;;12.98;;
69401;SDS011;56589;51.992;5.924;2022-09-24T09:19:58;17.25;;;13.50;;
69401;SDS011;56589;51.992;5.924;2022-09-24T09:22:33;15.63;;;12.95;;
69401;SDS011;56589;51.992;5.924;2022-09-24T09:28:00;15.43;;;12.38;;
69401;SDS011;56589;51.992;5.924;2022-09-24T09:30:37;15.77;;;12.25;;
69401;SDS011;56589;51.992;5.924;2022-09-24T09:33:26;16.67;;;12.70;;
69401;SDS011;56589;51.992;5.924;2022-09-24T09:36:17;14.60;;;11.77;;
69401;SDS011;56589;51.992;5.924;2022-09-24T09:39:00;16.42;;;13.18;;
69401;SDS011;56589;51.992;5.924;2022-09-24T09:41:47;15.68;;;12.43;;
69401;SDS011;56589;51.992;5.924;2022-09-24T09:44:21;16.65;;;11.55;;
69401;SDS011;56589;51.992;5.924;2022-09-24T09:46:52;14.43;;;11.75;;
69401;SDS011;56589;51.992;5.924;2022-09-24T09:49:29;15.65;;;11.38;;
69401;SDS011;56589;51.992;5.924;2022-09-24T09:52:00;14.80;;;10.27;;
69401;SDS011;56589;51.992;5.924;2022-09-24T09:54:39;15.98;;;11.75;;
69401;SDS011;56589;51.992;5.924;2022-09-24T09:57:05;13.57;;;10.73;;
69401;SDS011;56589;51.992;5.924;2022-09-24T09:59:39;16.15;;;11.60;;
69401;SDS011;56589;51.992;5.924;2022-09-24T10:02:09;14.70;;;12.20;;
69401;SDS011;56589;51.992;5.924;2022-09-24T10:04:50;16.08;;;11.43;;
69401;SDS011;56589;51.992;5.924;2022-09-24T10:07:19;13.98;;;11.55;;
69401;SDS011;56589;51.992;5.924;2022-09-24T10:09:46;14.10;;;11.48;;
69401;SDS011;56589;51.992;5.924;2022-09-24T10:12:26;14.73;;;11.88;;
69401;SDS011;56589;51.992;5.924;2022-09-24T10:14:56;17.60;;;11.70;;
69401;SDS011;56589;51.992;5.924;2022-09-24T10:17:26;15.05;;;11.70;;
69401;SDS011;56589;51.992;5.924;2022-09-24T10:20:05;15.60;;;12.25;;
69401;SDS011;56589;51.992;5.924;2022-09-24T10:22:39;17.15;;;11.85;;
69401;SDS011;56589;51.992;5.924;2022-09-24T10:25:17;16.67;;;12.60;;
69401;SDS011;56589;51.992;5.924;2022-09-24T10:27:46;16.35;;;13.10;;
69401;SDS011;56589;51.992;5.924;2022-09-24T10:30:13;17.17;;;12.52;;
69401;SDS011;56589;51.992;5.924;2022-09-24T10:32:41;17.05;;;12.57;;
69401;SDS011;56589;51.992;5.924;2022-09-24T10:35:21;18.55;;;12.90;;
69401;SDS011;56589;51.992;5.924;2022-09-24T10:37:53;16.05;;;12.32;;
69401;SDS011;56589;51.992;5.924;2022-09-24T10:40:22;19.67;;;12.82;;
69401;SDS011;56589;51.992;5.924;2022-09-24T10:42:56;23.98;;;13.05;;
69401;SDS011;56589;51.992;5.924;2022-09-24T10:45:36;17.38;;;12.80;;
69401;SDS011;56589;51.992;5.924;2022-09-24T10:48:20;19.60;;;13.35;;
69401;SDS011;56589;51.992;5.924;2022-09-24T10:50:55;19.90;;;13.25;;
69401;SDS011;56589;51.992;5.924;2022-09-24T10:53:38;15.52;;;12.13;;
69401;SDS011;56589;51.992;5.924;2022-09-24T10:56:19;15.15;;;12.18;;
69401;SDS011;56589;51.992;5.924;2022-09-24T10:59:11;14.80;;;12.52;;
69401;SDS011;56589;51.992;5.924;2022-09-24T11:02:17;15.35;;;12.70;;
69401;SDS011;56589;51.992;5.924;2022-09-24T11:05:18;16.67;;;12.68;;
69401;SDS011;56589;51.992;5.924;2022-09-24T11:08:00;16.67;;;12.70;;
69401;SDS011;56589;51.992;5.924;2022-09-24T11:10:50;18.77;;;12.68;;
69401;SDS011;56589;51.992;5.924;2022-09-24T11:13:42;16.92;;;12.80;;
69401;SDS011;56589;51.992;5.924;2022-09-24T11:16:27;18.35;;;12.98;;
69401;SDS011;56589;51.992;5.924;2022-09-24T11:19:14;18.73;;;12.57;;
69401;SDS011;56589;51.992;5.924;2022-09-24T11:22:07;17.85;;;13.40;;
69401;SDS011;56589;51.992;5.924;2022-09-24T11:27:52;16.02;;;12.20;;
69401;SDS011;56589;51.992;5.924;2022-09-24T11:30:32;19.23;;;13.32;;
69401;SDS011;56589;51.992;5.924;2022-09-24T11:33:20;13.93;;;11.45;;
69401;SDS011;56589;51.992;5.924;2022-09-24T11:36:12;20.45;;;13.93;;
69401;SDS011;56589;51.992;5.924;2022-09-24T11:38:59;19.05;;;13.52;;
69401;SDS011;56589;51.992;5.924;2022-09-24T11:41:48;20.00;;;14.40;;
69401;SDS011;56589;51.992;5.924;2022-09-24T11:47:42;18.42;;;13.57;;
69401;SDS011;56589;51.992;5.924;2022-09-24T11:50:33;19.63;;;13.30;;
69401;SDS011;56589;51.992;5.924;2022-09-24T11:53:20;20.38;;;13.32;;
69401;SDS011;56589;51.992;5.924;2022-09-24T11:56:00;18.75;;;14.40;;
69401;SDS011;56589;51.992;5.924;2022-09-24T11:58:37;18.92;;;13.65;;
69401;SDS011;56589;51.992;5.924;2022-09-24T12:01:13;18.13;;;13.10;;
69401;SDS011;56589;51.992;5.924;2022-09-24T12:03:46;15.93;;;12.13;;
69401;SDS011;56589;51.992;5.924;2022-09-24T12:06:21;17.00;;;12.82;;
69401;SDS011;56589;51.992;5.924;2022-09-24T12:08:55;14.32;;;11.07;;
69401;SDS011;56589;51.992;5.924;2022-09-24T12:11:40;16.13;;;11.73;;
69401;SDS011;56589;51.992;5.924;2022-09-24T12:14:17;17.45;;;11.65;;
69401;SDS011;56589;51.992;5.924;2022-09-24T12:16:51;17.80;;;12.88;;
69401;SDS011;56589;51.992;5.924;2022-09-24T12:19:25;15.85;;;11.68;;
69401;SDS011;56589;51.992;5.924;2022-09-24T12:21:58;16.27;;;11.98;;
69401;SDS011;56589;51.992;5.924;2022-09-24T12:24:27;17.50;;;12.55;;
69401;SDS011;56589;51.992;5.924;2022-09-24T12:27:00;14.60;;;11.88;;
69401;SDS011;56589;51.992;5.924;2022-09-24T12:29:39;14.98;;;12.02;;
69401;SDS011;56589;51.992;5.924;2022-09-24T12:32:16;16.80;;;12.45;;
69401;SDS011;56589;51.992;5.924;2022-09-24T12:34:52;15.32;;;12.15;;
69401;SDS011;56589;51.992;5.924;2022-09-24T12:37:30;15.73;;;12.02;;
69401;SDS011;56589;51.992;5.924;2022-09-24T12:40:08;18.10;;;12.27;;
69401;SDS011;56589;51.992;5.924;2022-09-24T12:43:01;15.45;;;11.98;;
69401;SDS011;56589;51.992;5.924;2022-09-24T12:45:49;17.48;;;13.27;;
69401;SDS011;56589;51.992;5.924;2022-09-24T12:48:21;13.52;;;11.05;;
69401;SDS011;56589;51.992;5.924;2022-09-24T12:50:54;12.73;;;11.07;;
69401;SDS011;56589;51.992;5.924;2022-09-24T12:53:24;16.08;;;11.90;;
69401;SDS011;56589;51.992;5.924;2022-09-24T12:55:58;17.13;;;12.00;;
69401;SDS011;56589;51.992;5.924;2022-09-24T12:58:28;17.48;;;11.93;;
69401;SDS011;56589;51.992;5.924;2022-09-24T13:01:10;16.80;;;11.07;;
69401;SDS011;56589;51.992;5.924;2022-09-24T13:04:00;18.15;;;12.90;;
69401;SDS011;56589;51.992;5.924;2022-09-24T13:06:49;16.27;;;12.57;;
69401;SDS011;56589;51.992;5.924;2022-09-24T13:09:23;16.08;;;12.77;;
69401;SDS011;56589;51.992;5.924;2022-09-24T13:12:17;17.63;;;13.85;;
69401;SDS011;56589;51.992;5.924;2022-09-24T13:14:48;20.15;;;13.35;;
69401;SDS011;56589;51.992;5.924;2022-09-24T13:17:24;20.02;;;13.43;;
69401;SDS011;56589;51.992;5.924;2022-09-24T13:19:55;17.92;;;13.45;;
69401;SDS011;56589;51.992;5.924;2022-09-24T13:24:53;18.75;;;13.07;;
69401;SDS011;56589;51.992;5.924;2022-09-24T13:27:53;14.75;;;12.43;;
69401;SDS011;56589;51.992;5.924;2022-09-24T13:30:25;20.63;;;13.23;;
69401;SDS011;56589;51.992;5.924;2022-09-24T13:33:12;20.35;;;14.38;;
69401;SDS011;56589;51.992;5.924;2022-09-24T13:35:49;15.80;;;12.70;;
69401;SDS011;56589;51.992;5.924;2022-09-24T13:38:30;18.27;;;12.60;;
69401;SDS011;56589;51.992;5.924;2022-09-24T13:41:03;16.17;;;12.38;;
69401;SDS011;56589;51.992;5.924;2022-09-24T13:43:47;17.73;;;13.23;;
69401;SDS011;56589;51.992;5.924;2022-09-24T13:46:21;17.27;;;13.45;;
69401;SDS011;56589;51.992;5.924;2022-09-24T13:48:54;17.73;;;13.90;;
69401;SDS011;56589;51.992;5.924;2022-09-24T13:51:27;14.90;;;12.18;;
69401;SDS011;56589;51.992;5.924;2022-09-24T13:54:01;15.35;;;12.20;;
69401;SDS011;56589;51.992;5.924;2022-09-24T13:56:36;17.80;;;12.88;;
69401;SDS011;56589;51.992;5.924;2022-09-24T13:59:02;15.90;;;11.93;;
69401;SDS011;56589;51.992;5.924;2022-09-24T14:01:33;15.25;;;12.07;;
69401;SDS011;56589;51.992;5.924;2022-09-24T14:04:13;15.00;;;10.68;;
69401;SDS011;56589;51.992;5.924;2022-09-24T14:06:43;16.02;;;11.65;;
69401;SDS011;56589;51.992;5.924;2022-09-24T14:09:15;15.98;;;11.63;;
69401;SDS011;56589;51.992;5.924;2022-09-24T14:11:51;14.52;;;11.25;;
69401;SDS011;56589;51.992;5.924;2022-09-24T14:14:20;14.88;;;11.65;;
69401;SDS011;56589;51.992;5.924;2022-09-24T14:16:49;13.43;;;10.93;;
69401;SDS011;56589;51.992;5.924;2022-09-24T14:19:18;17.42;;;12.05;;
69401;SDS011;56589;51.992;5.924;2022-09-24T14:21:44;15.32;;;11.82;;
69401;SDS011;56589;51.992;5.924;2022-09-24T14:24:17;15.05;;;12.10;;
69401;SDS011;56589;51.992;5.924;2022-09-24T14:26:49;15.85;;;12.55;;
69401;SDS011;56589;51.992;5.924;2022-09-24T14:29:23;14.93;;;11.93;;
69401;SDS011;56589;51.992;5.924;2022-09-24T14:31:54;16.58;;;10.55;;
69401;SDS011;56589;51.992;5.924;2022-09-24T14:34:31;14.50;;;11.38;;
69401;SDS011;56589;51.992;5.924;2022-09-24T14:37:06;15.20;;;10.93;;
69401;SDS011;56589;51.992;5.924;2022-09-24T14:39:41;15.32;;;11.38;;
69401;SDS011;56589;51.992;5.924;2022-09-24T14:42:12;15.82;;;10.75;;
69401;SDS011;56589;51.992;5.924;2022-09-24T14:44:50;14.32;;;10.65;;
69401;SDS011;56589;51.992;5.924;2022-09-24T14:47:23;10.27;;;8.32;;
69401;SDS011;56589;51.992;5.924;2022-09-24T14:49:55;9.98;;;7.10;;
69401;SDS011;56589;51.992;5.924;2022-09-24T14:52:24;13.52;;;8.55;;
69401;SDS011;56589;51.992;5.924;2022-09-24T14:55:02;8.40;;;5.45;;
69401;SDS011;56589;51.992;5.924;2022-09-24T14:57:39;6.03;;;3.92;;
69401;SDS011;56589;51.992;5.924;2022-09-24T15:00:17;10.93;;;6.90;;
69401;SDS011;56589;51.992;5.924;2022-09-24T15:02:47;9.65;;;6.63;;
69401;SDS011;56589;51.992;5.924;2022-09-24T15:05:24;6.82;;;3.95;;
69401;SDS011;56589;51.992;5.924;2022-09-24T15:08:06;4.55;;;2.60;;
69401;SDS011;56589;51.992;5.924;2022-09-24T15:10:50;3.42;;;1.88;;
69401;SDS011;56589;51.992;5.924;2022-09-24T15:13:18;3.20;;;1.20;;
69401;SDS011;56589;51.992;5.924;2022-09-24T15:16:01;4.50;;;1.85;;